createdAt,value
2023-05-22T00:00:29.557Z,0.56
2023-05-22T00:01:29.653Z,0.57
2023-05-22T00:02:29.754Z,0.55
2023-05-22T00:03:29.767Z,0.56
2023-05-22T00:04:29.838Z,0.57
2023-05-22T00:05:29.880Z,0.57
2023-05-22T00:06:29.950Z,0.57
2023-05-22T00:07:30.007Z,0.57
2023-05-22T00:08:30.116Z,0.56
2023-05-22T00:09:30.115Z,0.56
2023-05-22T00:10:30.194Z,0.57
2023-05-22T00:11:30.200Z,0.56
2023-05-22T00:12:30.261Z,0.56
2023-05-22T00:13:30.295Z,0.57
2023-05-22T00:14:30.372Z,0.56
2023-05-22T00:15:30.411Z,0.56
2023-05-22T00:16:30.608Z,0.56
2023-05-22T00:17:30.556Z,0.56
2023-05-22T00:18:30.610Z,0.56
2023-05-22T00:19:30.712Z,0.57
2023-05-22T00:20:30.700Z,0.56
2023-05-22T00:21:30.716Z,0.56
2023-05-22T00:22:30.810Z,0.56
2023-05-22T00:23:30.877Z,0.56
2023-05-22T00:24:30.892Z,0.56
2023-05-22T00:25:30.923Z,0.56
2023-05-22T00:26:31.026Z,0.55
2023-05-22T00:27:31.005Z,0.56
2023-05-22T00:28:31.019Z,0.56
2023-05-22T00:29:31.131Z,0.56
2023-05-22T00:30:31.190Z,0.56
2023-05-22T00:31:31.248Z,0.56
2023-05-22T00:32:31.278Z,0.57
2023-05-22T00:33:31.262Z,0.55
2023-05-22T00:34:31.336Z,0.56
2023-05-22T00:35:31.328Z,0.56
2023-05-22T00:36:31.420Z,0.56
2023-05-22T00:37:31.459Z,0.56
2023-05-22T00:38:31.445Z,0.55
2023-05-22T00:39:31.520Z,0.55
2023-05-22T00:40:31.521Z,0.55
2023-05-22T00:41:31.516Z,0.56
2023-05-22T00:42:31.569Z,0.56
2023-05-22T00:43:31.590Z,0.56
2023-05-22T00:44:31.576Z,0.56
2023-05-22T00:45:31.577Z,0.57
2023-05-22T00:46:31.698Z,0.57
2023-05-22T00:47:31.724Z,0.55
2023-05-22T00:48:31.683Z,0.57
2023-05-22T00:49:31.688Z,0.56
2023-05-22T00:50:31.684Z,0.57
2023-05-22T00:51:31.689Z,0.57
2023-05-22T00:52:31.706Z,0.56
2023-05-22T00:53:31.698Z,0.56
2023-05-22T00:54:31.715Z,0.56
2023-05-22T00:55:31.724Z,0.57
2023-05-22T00:56:31.775Z,0.56
2023-05-22T00:57:31.770Z,0.56
2023-05-22T00:58:31.751Z,0.56
2023-05-22T00:59:31.802Z,0.57
2023-05-22T01:00:31.757Z,0.56
2023-05-22T01:01:31.809Z,0.57
2023-05-22T01:02:31.852Z,0.55
2023-05-22T01:03:31.861Z,0.57
2023-05-22T01:04:31.793Z,0.56
2023-05-22T01:05:31.755Z,0.56
2023-05-22T01:06:31.771Z,0.55
2023-05-22T01:07:31.741Z,0.56
2023-05-22T01:08:31.740Z,0.56
2023-05-22T01:09:31.748Z,0.56
2023-05-22T01:10:31.771Z,0.56
2023-05-22T01:11:31.768Z,0.56
2023-05-22T01:12:31.736Z,0.56
2023-05-22T01:13:31.731Z,0.55
2023-05-22T01:14:31.696Z,0.56
2023-05-22T01:15:31.764Z,0.56
2023-05-22T01:16:31.798Z,0.56
2023-05-22T01:17:31.780Z,0.57
2023-05-22T01:18:31.737Z,0.56
2023-05-22T01:19:31.762Z,0.55
2023-05-22T01:20:31.705Z,0.55
2023-05-22T01:21:31.724Z,0.57
2023-05-22T01:22:31.755Z,0.56
2023-05-22T01:23:31.815Z,0.56
2023-05-22T01:24:31.859Z,0.56
2023-05-22T01:25:32.057Z,0.56
2023-05-22T01:26:31.906Z,0.57
2023-05-22T01:27:31.824Z,0.57
2023-05-22T01:28:31.851Z,0.56
2023-05-22T01:29:31.855Z,0.56
2023-05-22T01:30:31.851Z,0.56
2023-05-22T01:31:31.902Z,0.55
2023-05-22T01:32:31.931Z,0.56
2023-05-22T01:33:31.900Z,0.57
2023-05-22T01:34:31.837Z,0.56
2023-05-22T01:35:31.851Z,0.56
2023-05-22T01:36:31.910Z,0.56
2023-05-22T01:37:31.856Z,0.56
2023-05-22T01:38:31.832Z,0.56
2023-05-22T01:39:31.866Z,0.57
2023-05-22T01:40:31.869Z,0.56
2023-05-22T01:41:31.873Z,0.57
2023-05-22T01:42:31.870Z,0.56
2023-05-22T01:43:31.837Z,0.57
2023-05-22T01:44:31.892Z,0.56
2023-05-22T01:45:31.865Z,0.57
2023-05-22T01:46:31.814Z,0.57
2023-05-22T01:47:31.909Z,0.55
2023-05-22T01:48:31.882Z,0.56
2023-05-22T01:49:31.833Z,0.57
2023-05-22T01:50:31.821Z,0.56
2023-05-22T01:51:31.844Z,0.57
2023-05-22T01:52:31.833Z,0.55
2023-05-22T01:53:31.829Z,0.58
2023-05-22T01:54:31.859Z,0.56
2023-05-22T01:55:31.848Z,0.56
2023-05-22T01:56:31.831Z,0.56
2023-05-22T01:57:31.840Z,0.56
2023-05-22T01:58:31.861Z,0.56
2023-05-22T01:59:31.850Z,0.55
2023-05-22T02:00:31.841Z,0.56
2023-05-22T02:01:31.902Z,0.55
2023-05-22T02:02:31.960Z,0.56
2023-05-22T02:03:31.952Z,0.56
2023-05-22T02:04:31.873Z,0.56
2023-05-22T02:05:31.877Z,0.56
2023-05-22T02:06:31.894Z,0.56
2023-05-22T02:07:31.905Z,0.56
2023-05-22T02:08:31.861Z,0.57
2023-05-22T02:09:31.870Z,0.57
2023-05-22T02:10:31.869Z,0.55
2023-05-22T02:11:31.953Z,0.56
2023-05-22T02:12:31.893Z,0.56
2023-05-22T02:13:31.885Z,0.55
2023-05-22T02:14:31.892Z,0.56
2023-05-22T02:15:31.936Z,0.55
2023-05-22T02:16:31.979Z,0.55
2023-05-22T02:17:32.011Z,0.57
2023-05-22T02:18:31.909Z,0.57
2023-05-22T02:19:32.010Z,0.56
2023-05-22T02:20:31.948Z,0.55
2023-05-22T02:21:32.039Z,0.56
2023-05-22T02:22:31.946Z,0.56
2023-05-22T02:23:31.967Z,0.56
2023-05-22T02:24:32.028Z,0.57
2023-05-22T02:25:32.038Z,0.56
2023-05-22T02:26:32.031Z,0.56
2023-05-22T02:27:32.027Z,0.56
2023-05-22T02:28:32.000Z,0.55
2023-05-22T02:29:32.090Z,0.57
2023-05-22T02:30:32.046Z,0.56
2023-05-22T02:31:32.108Z,0.58
2023-05-22T02:32:32.069Z,0.56
2023-05-22T02:33:32.126Z,0.55
2023-05-22T02:34:32.143Z,0.57
2023-05-22T02:35:32.121Z,0.57
2023-05-22T02:36:32.151Z,0.58
2023-05-22T02:37:32.130Z,0.57
2023-05-22T02:38:32.130Z,0.56
2023-05-22T02:39:32.171Z,0.56
2023-05-22T02:40:32.217Z,0.57
2023-05-22T02:41:32.229Z,0.57
2023-05-22T02:42:32.205Z,0.57
2023-05-22T02:43:32.252Z,0.57
2023-05-22T02:44:32.254Z,0.55
2023-05-22T02:45:32.300Z,0.56
2023-05-22T02:46:32.364Z,0.57
2023-05-22T02:47:32.349Z,0.56
2023-05-22T02:48:32.318Z,0.57
2023-05-22T02:49:32.341Z,0.57
2023-05-22T02:50:32.340Z,0.56
2023-05-22T02:51:32.341Z,0.57
2023-05-22T02:52:32.407Z,0.56
2023-05-22T02:53:32.381Z,0.58
2023-05-22T02:54:32.359Z,0.57
2023-05-22T02:55:32.404Z,0.58
2023-05-22T02:56:32.438Z,0.57
2023-05-22T02:57:32.399Z,0.57
2023-05-22T02:58:32.448Z,0.56
2023-05-22T02:59:32.450Z,0.56
2023-05-22T03:00:33.335Z,0.56
2023-05-22T03:01:32.509Z,0.57
2023-05-22T03:02:32.658Z,0.56
2023-05-22T03:03:32.538Z,0.56
2023-05-22T03:04:32.510Z,0.58
2023-05-22T03:05:32.528Z,0.57
2023-05-22T03:06:32.545Z,0.57
2023-05-22T03:07:32.540Z,0.56
2023-05-22T03:08:32.617Z,0.56
2023-05-22T03:09:32.642Z,0.56
2023-05-22T03:10:32.614Z,0.58
2023-05-22T03:11:32.688Z,0.56
2023-05-22T03:12:32.697Z,0.56
2023-05-22T03:13:32.770Z,0.57
2023-05-22T03:14:32.756Z,0.56
2023-05-22T03:15:32.777Z,0.57
2023-05-22T03:16:32.831Z,0.57
2023-05-22T03:17:32.841Z,0.57
2023-05-22T03:18:32.838Z,0.57
2023-05-22T03:19:32.855Z,0.57
2023-05-22T03:20:32.879Z,0.56
2023-05-22T03:21:32.922Z,0.57
2023-05-22T03:22:32.924Z,0.56
2023-05-22T03:23:32.980Z,0.57
2023-05-22T03:24:32.992Z,0.57
2023-05-22T03:25:32.991Z,0.57
2023-05-22T03:26:33.035Z,0.57
2023-05-22T03:27:33.034Z,0.57
2023-05-22T03:28:33.093Z,0.57
2023-05-22T03:29:33.072Z,0.58
2023-05-22T03:30:33.119Z,0.57
2023-05-22T03:31:33.143Z,0.57
2023-05-22T03:32:33.235Z,0.57
2023-05-22T03:33:33.261Z,0.56
2023-05-22T03:34:33.224Z,0.57
2023-05-22T03:35:33.254Z,0.58
2023-05-22T03:36:33.270Z,0.57
2023-05-22T03:37:33.271Z,0.57
2023-05-22T03:38:33.337Z,0.58
2023-05-22T03:39:33.349Z,0.57
2023-05-22T03:40:33.385Z,0.56
2023-05-22T03:41:33.405Z,0.56
2023-05-22T03:42:33.519Z,0.56
2023-05-22T03:43:33.482Z,0.58
2023-05-22T03:44:33.574Z,0.57
2023-05-22T03:45:33.578Z,0.57
2023-05-22T03:46:33.538Z,0.57
2023-05-22T03:47:33.624Z,0.56
2023-05-22T03:48:33.620Z,0.56
2023-05-22T03:49:33.615Z,0.56
2023-05-22T03:50:33.640Z,0.57
2023-05-22T03:51:33.658Z,0.56
2023-05-22T03:52:33.681Z,0.56
2023-05-22T03:53:33.738Z,0.55
2023-05-22T03:54:33.694Z,0.56
2023-05-22T03:55:33.711Z,0.57
2023-05-22T03:56:33.749Z,0.56
2023-05-22T03:57:33.766Z,0.56
2023-05-22T03:58:33.777Z,0.56
2023-05-22T03:59:33.831Z,0.55
2023-05-22T04:00:33.825Z,0.55
2023-05-22T04:01:33.840Z,0.56
2023-05-22T04:02:33.914Z,0.56
2023-05-22T04:03:33.852Z,0.55
2023-05-22T04:04:33.854Z,0.53
2023-05-22T04:05:33.980Z,0.52
2023-05-22T04:06:33.857Z,0.51
2023-05-22T04:07:33.866Z,0.50
2023-05-22T04:08:33.879Z,0.50
2023-05-22T04:09:33.941Z,0.50
2023-05-22T04:10:33.960Z,0.50
2023-05-22T04:11:33.906Z,0.50
2023-05-22T04:12:33.975Z,0.50
2023-05-22T04:13:33.927Z,0.50
2023-05-22T04:14:33.909Z,0.51
2023-05-22T04:15:33.976Z,0.50
2023-05-22T04:16:33.955Z,0.51
2023-05-22T04:17:34.043Z,0.50
2023-05-22T04:18:34.016Z,0.50
2023-05-22T04:19:34.136Z,0.52
2023-05-22T04:20:34.066Z,0.50
2023-05-22T04:21:34.171Z,0.50
2023-05-22T04:22:34.172Z,0.51
2023-05-22T04:23:34.202Z,0.51
2023-05-22T04:24:34.184Z,0.50
2023-05-22T04:25:34.200Z,0.51
2023-05-22T04:26:34.268Z,0.51
2023-05-22T04:27:34.311Z,0.52
2023-05-22T04:28:34.327Z,0.53
2023-05-22T04:29:34.342Z,0.51
2023-05-22T04:30:34.350Z,0.51
2023-05-22T04:31:34.455Z,0.52
2023-05-22T04:32:34.442Z,0.51
2023-05-22T04:33:34.557Z,0.51
2023-05-22T04:34:34.526Z,0.52
2023-05-22T04:35:34.614Z,0.52
2023-05-22T04:36:34.584Z,0.52
2023-05-22T04:37:34.645Z,0.55
2023-05-22T04:38:34.652Z,0.54
2023-05-22T04:39:34.692Z,0.56
2023-05-22T04:40:34.723Z,0.56
2023-05-22T04:41:34.728Z,0.56
2023-05-22T04:42:34.767Z,0.55
2023-05-22T04:43:34.792Z,0.55
2023-05-22T04:44:35.408Z,0.52
2023-05-22T04:45:34.848Z,0.52
2023-05-22T04:46:34.896Z,0.50
2023-05-22T04:47:34.966Z,0.50
2023-05-22T04:48:34.984Z,0.50
2023-05-22T04:49:35.037Z,0.51
2023-05-22T04:50:35.008Z,0.50
2023-05-22T04:51:35.174Z,0.51
2023-05-22T04:52:35.014Z,0.51
2023-05-22T04:53:35.010Z,0.50
2023-05-22T04:54:35.076Z,0.50
2023-05-22T04:55:35.158Z,0.50
2023-05-22T04:56:37.022Z,0.51
2023-05-22T04:57:35.192Z,0.50
2023-05-22T04:58:35.222Z,0.51
2023-05-22T04:59:35.306Z,0.54
2023-05-22T05:00:35.379Z,0.54
2023-05-22T05:01:35.472Z,0.52
2023-05-22T05:02:35.548Z,0.52
2023-05-22T05:03:35.582Z,0.50
2023-05-22T05:04:35.548Z,0.53
2023-05-22T05:05:35.553Z,0.51
2023-05-22T05:06:35.573Z,0.52
2023-05-22T05:07:35.565Z,0.50
2023-05-22T05:08:35.573Z,0.51
2023-05-22T05:09:35.641Z,0.51
2023-05-22T05:10:35.603Z,0.50
2023-05-22T05:11:35.671Z,0.51
2023-05-22T05:12:35.625Z,0.51
2023-05-22T05:13:35.613Z,0.50
2023-05-22T05:14:35.628Z,0.51
2023-05-22T05:15:35.641Z,0.50
2023-05-22T05:16:35.679Z,0.51
2023-05-22T05:17:35.718Z,0.51
2023-05-22T05:18:35.703Z,0.51
2023-05-22T05:19:37.116Z,0.50
2023-05-22T05:20:35.784Z,0.51
2023-05-22T05:21:35.762Z,0.51
2023-05-22T05:22:36.201Z,0.50
2023-05-22T05:23:35.731Z,0.51
2023-05-22T05:24:35.780Z,0.51
2023-05-22T05:25:35.772Z,0.50
2023-05-22T05:26:35.793Z,0.51
2023-05-22T05:27:35.855Z,0.50
2023-05-22T05:28:35.851Z,0.50
2023-05-22T05:29:35.848Z,0.50
2023-05-22T05:30:35.869Z,0.50
2023-05-22T05:31:35.925Z,0.51
2023-05-22T05:32:36.064Z,0.51
2023-05-22T05:33:35.955Z,0.50
2023-05-22T05:34:36.014Z,0.50
2023-05-22T05:35:35.994Z,0.50
2023-05-22T05:36:36.018Z,0.50
2023-05-22T05:37:36.134Z,0.50
2023-05-22T05:38:36.165Z,0.50
2023-05-22T05:39:36.218Z,0.50
2023-05-22T05:40:36.308Z,0.50
2023-05-22T05:41:36.371Z,0.51
2023-05-22T05:42:36.329Z,0.50
2023-05-22T05:43:36.318Z,0.50
2023-05-22T05:44:36.334Z,0.50
2023-05-22T05:45:36.364Z,0.51
2023-05-22T05:46:36.442Z,0.51
2023-05-22T05:47:36.408Z,0.50
2023-05-22T05:48:36.430Z,0.51
2023-05-22T05:49:36.445Z,0.52
2023-05-22T05:50:36.511Z,0.50
2023-05-22T05:51:36.509Z,0.50
2023-05-22T05:52:36.539Z,0.51
2023-05-22T05:53:36.549Z,0.52
2023-05-22T05:54:36.607Z,0.53
2023-05-22T05:55:36.643Z,0.52
2023-05-22T05:56:36.648Z,0.52
2023-05-22T05:57:36.660Z,0.54
2023-05-22T05:58:36.706Z,0.56
2023-05-22T05:59:36.694Z,0.55
2023-05-22T06:00:36.711Z,0.56
2023-05-22T06:01:36.758Z,0.55
2023-05-22T06:02:36.816Z,0.55
2023-05-22T06:03:36.864Z,0.55
2023-05-22T06:04:36.788Z,0.55
2023-05-22T06:05:36.839Z,0.54
2023-05-22T06:06:36.794Z,0.56
2023-05-22T06:07:36.829Z,0.55
2023-05-22T06:08:36.831Z,0.55
2023-05-22T06:09:36.822Z,0.54
2023-05-22T06:10:36.891Z,0.55
2023-05-22T06:11:36.828Z,0.56
2023-05-22T06:12:36.840Z,0.56
2023-05-22T06:13:36.838Z,0.57
2023-05-22T06:14:36.838Z,0.58
2023-05-22T06:15:36.848Z,0.58
2023-05-22T06:16:37.007Z,0.59
2023-05-22T06:17:36.881Z,0.58
2023-05-22T06:18:36.918Z,0.57
2023-05-22T06:19:36.892Z,0.58
2023-05-22T06:20:37.015Z,0.59
2023-05-22T06:21:36.871Z,0.59
2023-05-22T06:22:36.903Z,0.57
2023-05-22T06:23:36.874Z,0.57
2023-05-22T06:24:36.884Z,0.56
2023-05-22T06:25:36.887Z,0.56
2023-05-22T06:26:36.891Z,0.54
2023-05-22T06:27:36.929Z,0.54
2023-05-22T06:28:36.902Z,0.55
2023-05-22T06:29:36.942Z,0.54
2023-05-22T06:30:40.031Z,0.55
2023-05-22T06:31:36.957Z,0.57
2023-05-22T06:32:37.132Z,0.57
2023-05-22T06:33:37.058Z,0.57
2023-05-22T06:34:36.895Z,0.54
2023-05-22T06:35:36.941Z,0.54
2023-05-22T06:36:36.918Z,0.54
2023-05-22T06:37:36.901Z,0.54
2023-05-22T06:38:36.960Z,0.55
2023-05-22T06:39:36.888Z,0.56
2023-05-22T06:40:36.956Z,0.53
2023-05-22T06:41:36.916Z,0.50
2023-05-22T06:42:36.903Z,0.52
2023-05-22T06:43:36.857Z,0.55
2023-05-22T06:44:36.856Z,0.56
2023-05-22T06:45:36.901Z,0.57
2023-05-22T06:46:36.873Z,0.57
2023-05-22T06:47:36.848Z,0.57
2023-05-22T06:48:36.807Z,0.57
2023-05-22T06:49:36.822Z,0.57
2023-05-22T06:50:37.086Z,0.56
2023-05-22T06:51:36.794Z,0.57
2023-05-22T06:52:36.787Z,0.57
2023-05-22T06:53:36.795Z,0.56
2023-05-22T06:54:37.006Z,0.57
2023-05-22T06:55:36.785Z,0.56
2023-05-22T06:56:36.777Z,0.55
2023-05-22T06:57:36.830Z,0.54
2023-05-22T06:58:36.757Z,0.53
2023-05-22T06:59:36.765Z,0.53
2023-05-22T07:00:36.883Z,0.54
2023-05-22T07:01:36.761Z,0.53
2023-05-22T07:02:36.787Z,0.53
2023-05-22T07:03:36.742Z,0.51
2023-05-22T07:04:36.780Z,0.52
2023-05-22T07:05:36.742Z,0.53
2023-05-22T07:06:36.721Z,0.55
2023-05-22T07:07:36.691Z,0.54
2023-05-22T07:08:36.718Z,0.55
2023-05-22T07:09:36.707Z,0.55
2023-05-22T07:10:37.002Z,0.56
2023-05-22T07:11:36.721Z,0.56
2023-05-22T07:12:36.653Z,0.56
2023-05-22T07:13:37.158Z,0.56
2023-05-22T07:14:36.680Z,0.56
2023-05-22T07:15:36.637Z,0.56
2023-05-22T07:16:36.690Z,0.54
2023-05-22T07:17:36.693Z,0.55
2023-05-22T07:18:36.656Z,0.56
2023-05-22T07:19:36.698Z,0.55
2023-05-22T07:20:37.048Z,0.52
2023-05-22T07:21:36.621Z,0.52
2023-05-22T07:22:36.582Z,0.53
2023-05-22T07:23:36.590Z,0.52
2023-05-22T07:24:36.643Z,0.52
2023-05-22T07:25:36.573Z,0.52
2023-05-22T07:26:36.585Z,0.51
2023-05-22T07:27:36.574Z,0.53
2023-05-22T07:28:37.050Z,0.50
2023-05-22T07:29:36.989Z,0.51
2023-05-22T07:30:36.597Z,0.52
2023-05-22T07:31:36.622Z,0.50
2023-05-22T07:32:37.181Z,0.51
2023-05-22T07:33:36.570Z,0.50
2023-05-22T07:34:36.977Z,0.50
2023-05-22T07:35:36.578Z,0.50
2023-05-22T07:36:36.520Z,0.50
2023-05-22T07:37:36.488Z,0.51
2023-05-22T07:38:36.487Z,0.50
2023-05-22T07:39:36.507Z,0.50
2023-05-22T07:40:36.477Z,0.51
2023-05-22T07:41:36.506Z,0.50
2023-05-22T07:42:36.462Z,0.51
2023-05-22T07:43:36.505Z,0.52
2023-05-22T07:44:36.571Z,0.52
2023-05-22T07:45:36.507Z,0.51
2023-05-22T07:46:36.594Z,0.52
2023-05-22T07:47:36.599Z,0.52
2023-05-22T07:48:36.552Z,0.52
2023-05-22T07:49:36.558Z,0.52
2023-05-22T07:50:36.618Z,0.53
2023-05-22T07:51:36.572Z,0.55
2023-05-22T07:52:36.594Z,0.54
2023-05-22T07:53:36.585Z,0.53
2023-05-22T07:54:36.593Z,0.54
2023-05-22T07:55:36.666Z,0.54
2023-05-22T07:56:36.604Z,0.53
2023-05-22T07:57:36.629Z,0.55
2023-05-22T07:58:36.647Z,0.54
2023-05-22T07:59:36.637Z,0.53
2023-05-22T08:00:36.557Z,0.52
2023-05-22T08:01:36.569Z,0.51
2023-05-22T08:02:36.700Z,0.54
2023-05-22T08:03:36.662Z,0.52
2023-05-22T08:04:36.696Z,0.51
2023-05-22T08:05:36.639Z,0.50
2023-05-22T08:06:36.602Z,0.55
2023-05-22T08:07:36.656Z,0.60
2023-05-22T08:08:36.638Z,0.60
2023-05-22T08:09:36.663Z,0.57
2023-05-22T08:10:47.179Z,0.55
2023-05-22T08:11:39.672Z,0.55
2023-05-22T08:12:36.643Z,0.56
2023-05-22T08:13:36.616Z,0.57
2023-05-22T08:14:36.648Z,0.60
2023-05-22T08:15:36.602Z,0.66
2023-05-22T08:16:36.661Z,0.66
2023-05-22T08:17:36.594Z,0.63
2023-05-22T08:18:36.573Z,0.65
2023-05-22T08:19:36.690Z,0.63
2023-05-22T08:20:36.558Z,0.59
2023-05-22T08:21:36.574Z,0.60
2023-05-22T08:22:36.577Z,0.63
2023-05-22T08:23:36.567Z,0.66
2023-05-22T08:24:36.556Z,0.57
2023-05-22T08:25:37.037Z,0.57
2023-05-22T08:26:36.537Z,0.57
2023-05-22T08:27:36.520Z,0.50
2023-05-22T08:28:36.550Z,0.50
2023-05-22T08:29:36.585Z,0.50
2023-05-22T08:30:36.522Z,0.51
2023-05-22T08:31:36.535Z,0.50
2023-05-22T08:32:36.519Z,0.50
2023-05-22T08:33:36.563Z,0.50
2023-05-22T08:34:36.528Z,0.50
2023-05-22T08:35:36.509Z,0.50
2023-05-22T08:36:36.485Z,0.50
2023-05-22T08:37:36.489Z,0.50
2023-05-22T08:38:36.489Z,0.50
2023-05-22T08:39:36.477Z,0.50
2023-05-22T08:40:36.521Z,0.50
2023-05-22T08:41:37.452Z,0.50
2023-05-22T08:42:36.434Z,0.50
2023-05-22T08:43:36.427Z,0.51
2023-05-22T08:44:36.495Z,0.52
2023-05-22T08:45:36.995Z,0.52
2023-05-22T08:46:36.432Z,0.57
2023-05-22T08:47:36.413Z,0.62
2023-05-22T08:48:36.387Z,0.72
2023-05-22T08:49:36.417Z,0.74
2023-05-22T08:50:36.366Z,0.79
2023-05-22T08:51:36.376Z,0.87
2023-05-22T08:52:36.373Z,0.93
2023-05-22T08:53:36.635Z,0.95
2023-05-22T08:54:36.420Z,1.03
2023-05-22T08:55:36.349Z,1.03
2023-05-22T08:56:39.788Z,1.03
2023-05-22T08:57:37.347Z,1.03
2023-05-22T08:58:36.353Z,1.04
2023-05-22T08:59:36.318Z,1.06
2023-05-22T09:00:36.325Z,1.11
2023-05-22T09:01:36.376Z,1.18
2023-05-22T09:02:36.367Z,1.12
2023-05-22T09:03:36.542Z,1.17
2023-05-22T09:04:36.363Z,1.22
2023-05-22T09:05:36.339Z,1.21
2023-05-22T09:06:36.370Z,1.24
2023-05-22T09:07:36.593Z,1.24
2023-05-22T09:08:36.468Z,1.25
2023-05-22T09:09:36.523Z,1.27
2023-05-22T09:10:36.694Z,1.28
2023-05-22T09:11:36.623Z,1.31
2023-05-22T09:12:36.678Z,1.34
2023-05-22T09:13:36.788Z,1.31
2023-05-22T09:14:36.744Z,1.35
2023-05-22T09:15:36.772Z,1.33
2023-05-22T09:16:36.880Z,1.36
2023-05-22T09:17:37.085Z,1.38
2023-05-22T09:18:36.931Z,1.35
2023-05-22T09:19:36.970Z,1.37
2023-05-22T09:20:36.992Z,1.38
2023-05-22T09:21:37.024Z,1.34
2023-05-22T09:22:37.091Z,1.38
2023-05-22T09:23:37.105Z,1.34
2023-05-22T09:24:37.120Z,1.29
2023-05-22T09:25:37.173Z,1.30
2023-05-22T09:26:37.157Z,1.34
2023-05-22T09:27:37.190Z,1.35
2023-05-22T09:28:37.259Z,1.31
2023-05-22T09:29:37.550Z,1.27
2023-05-22T09:30:37.351Z,1.23
2023-05-22T09:31:37.247Z,1.23
2023-05-22T09:32:37.291Z,1.23
2023-05-22T09:33:37.352Z,1.19
2023-05-22T09:34:37.553Z,1.24
2023-05-22T09:35:37.342Z,1.28
2023-05-22T09:36:37.434Z,1.17
2023-05-22T09:37:37.407Z,1.10
2023-05-22T09:38:37.405Z,0.84
2023-05-22T09:39:37.457Z,0.77
2023-05-22T09:40:37.634Z,0.66
2023-05-22T09:41:37.607Z,0.62
2023-05-22T09:42:37.542Z,0.61
2023-05-22T09:43:37.565Z,0.61
2023-05-22T09:44:37.586Z,0.60
2023-05-22T09:45:37.642Z,0.59
2023-05-22T09:46:37.716Z,0.60
2023-05-22T09:47:37.684Z,0.60
2023-05-22T09:48:37.693Z,0.57
2023-05-22T09:49:37.717Z,0.54
2023-05-22T09:50:37.993Z,0.50
2023-05-22T09:51:37.770Z,0.50
2023-05-22T09:52:37.793Z,0.54
2023-05-22T09:53:37.831Z,0.54
2023-05-22T09:54:37.785Z,0.51
2023-05-22T09:55:37.757Z,0.50
2023-05-22T09:56:39.686Z,0.49
2023-05-22T09:57:37.808Z,0.52
2023-05-22T09:58:37.789Z,0.52
2023-05-22T09:59:37.785Z,0.50
2023-05-22T10:00:37.988Z,0.52
2023-05-22T10:01:37.903Z,0.50
2023-05-22T10:02:37.883Z,0.51
2023-05-22T10:03:37.853Z,0.50
2023-05-22T10:04:37.935Z,0.56
2023-05-22T10:05:37.890Z,0.60
2023-05-22T10:06:37.986Z,0.61
2023-05-22T10:07:37.899Z,0.64
2023-05-22T10:08:37.891Z,0.67
2023-05-22T10:09:37.921Z,0.69
2023-05-22T10:10:38.071Z,0.73
2023-05-22T10:11:37.947Z,0.76
2023-05-22T10:12:37.903Z,0.74
2023-05-22T10:13:37.908Z,0.80
2023-05-22T10:14:37.988Z,0.84
2023-05-22T10:15:37.909Z,0.88
2023-05-22T10:16:38.031Z,1.02
2023-05-22T10:17:37.984Z,1.12
2023-05-22T10:18:38.223Z,1.08
2023-05-22T10:19:41.296Z,0.98
2023-05-22T10:20:38.165Z,0.95
2023-05-22T10:21:37.938Z,0.96
2023-05-22T10:22:37.984Z,0.99
2023-05-22T10:23:37.924Z,1.01
2023-05-22T10:24:37.942Z,1.01
2023-05-22T10:25:37.890Z,1.10
2023-05-22T10:26:37.877Z,1.14
2023-05-22T10:27:37.872Z,1.18
2023-05-22T10:28:37.918Z,1.19
2023-05-22T10:29:37.867Z,1.22
2023-05-22T10:30:38.046Z,1.19
2023-05-22T10:31:39.460Z,1.23
2023-05-22T10:32:37.896Z,1.29
2023-05-22T10:33:38.184Z,1.22
2023-05-22T10:34:37.910Z,1.21
2023-05-22T10:35:37.877Z,1.35
2023-05-22T10:36:38.158Z,1.30
2023-05-22T10:37:37.803Z,1.24
2023-05-22T10:38:37.919Z,1.31
2023-05-22T10:39:37.782Z,1.35
2023-05-22T10:40:37.781Z,1.37
2023-05-22T10:41:37.762Z,1.41
2023-05-22T10:42:37.772Z,1.39
2023-05-22T10:43:37.809Z,1.35
2023-05-22T10:44:37.776Z,1.26
2023-05-22T10:45:37.759Z,1.06
2023-05-22T10:46:37.731Z,0.94
2023-05-22T10:47:37.864Z,0.97
2023-05-22T10:48:37.737Z,1.04
2023-05-22T10:49:37.758Z,0.91
2023-05-22T10:50:37.883Z,0.82
2023-05-22T10:51:37.714Z,0.73
2023-05-22T10:52:37.733Z,0.67
2023-05-22T10:53:37.713Z,0.65
2023-05-22T10:54:37.768Z,0.61
2023-05-22T10:55:37.696Z,0.56
2023-05-22T10:56:37.682Z,0.58
2023-05-22T10:57:37.722Z,0.70
2023-05-22T10:58:37.706Z,0.66
2023-05-22T10:59:37.668Z,0.66
2023-05-22T11:00:37.664Z,0.66
2023-05-22T11:01:38.161Z,0.57
2023-05-22T11:02:37.647Z,0.59
2023-05-22T11:03:37.829Z,0.62
2023-05-22T11:04:37.703Z,0.67
2023-05-22T11:05:37.680Z,0.61
2023-05-22T11:06:37.628Z,0.59
2023-05-22T11:07:37.611Z,0.56
2023-05-22T11:08:37.618Z,0.51
2023-05-22T11:09:37.588Z,0.58
2023-05-22T11:10:37.875Z,0.58
2023-05-22T11:11:37.572Z,0.59
2023-05-22T11:12:37.565Z,0.62
2023-05-22T11:13:37.599Z,0.59
2023-05-22T11:14:37.624Z,0.61
2023-05-22T11:15:37.550Z,0.60
2023-05-22T11:16:37.594Z,0.60
2023-05-22T11:17:37.539Z,0.60
2023-05-22T11:18:37.529Z,0.62
2023-05-22T11:19:37.565Z,0.67
2023-05-22T11:20:37.754Z,0.71
2023-05-22T11:21:37.552Z,0.89
2023-05-22T11:22:37.504Z,0.90
2023-05-22T11:23:37.508Z,0.91
2023-05-22T11:24:37.615Z,0.90
2023-05-22T11:25:37.550Z,1.25
2023-05-22T11:26:37.564Z,1.34
2023-05-22T11:27:37.515Z,1.43
2023-05-22T11:28:37.506Z,1.52
2023-05-22T11:29:37.474Z,1.73
2023-05-22T11:30:37.664Z,2.00
2023-05-22T11:31:37.582Z,2.11
2023-05-22T11:32:37.474Z,2.28
2023-05-22T11:33:37.404Z,2.49
2023-05-22T11:34:37.436Z,2.73
2023-05-22T11:35:37.417Z,2.96
2023-05-22T11:36:37.467Z,3.23
2023-05-22T11:37:37.398Z,3.33
2023-05-22T11:38:37.440Z,3.61
2023-05-22T11:39:37.423Z,3.55
2023-05-22T11:40:37.486Z,3.56
2023-05-22T11:41:37.396Z,3.80
2023-05-22T11:42:37.464Z,4.10
2023-05-22T11:43:37.394Z,4.35
2023-05-22T11:44:37.407Z,4.27
2023-05-22T11:45:37.355Z,4.70
2023-05-22T11:46:37.413Z,4.85
2023-05-22T11:47:37.337Z,4.80
2023-05-22T11:48:37.323Z,4.91
2023-05-22T11:49:37.334Z,5.12
2023-05-22T11:50:42.216Z,5.42
2023-05-22T11:51:38.319Z,5.42
2023-05-22T11:52:37.272Z,5.48
2023-05-22T11:53:37.304Z,5.59
2023-05-22T11:54:38.727Z,5.71
2023-05-22T11:55:37.293Z,6.08
2023-05-22T11:56:37.298Z,6.35
2023-05-22T11:57:37.274Z,6.53
2023-05-22T11:58:37.358Z,6.56
2023-05-22T11:59:37.261Z,7.07
2023-05-22T12:00:37.430Z,6.90
2023-05-22T12:01:37.273Z,6.79
2023-05-22T12:02:37.367Z,7.28
2023-05-22T12:03:37.352Z,7.16
2023-05-22T12:04:37.196Z,7.44
2023-05-22T12:05:37.311Z,7.46
2023-05-22T12:06:37.222Z,7.40
2023-05-22T12:07:37.165Z,7.82
2023-05-22T12:08:37.193Z,7.91
2023-05-22T12:09:37.202Z,8.00
2023-05-22T12:10:37.387Z,7.81
2023-05-22T12:11:37.164Z,8.10
2023-05-22T12:12:37.181Z,8.46
2023-05-22T12:13:37.132Z,8.40
2023-05-22T12:14:37.237Z,8.68
2023-05-22T12:15:37.138Z,8.96
2023-05-22T12:16:37.196Z,9.03
2023-05-22T12:17:37.163Z,8.91
2023-05-22T12:18:37.146Z,9.12
2023-05-22T12:19:37.182Z,8.77
2023-05-22T12:20:37.213Z,9.11
2023-05-22T12:21:37.195Z,9.50
2023-05-22T12:22:37.096Z,9.61
2023-05-22T12:23:37.110Z,9.20
2023-05-22T12:24:37.102Z,9.60
2023-05-22T12:25:37.062Z,9.69
2023-05-22T12:26:37.071Z,9.66
2023-05-22T12:27:38.549Z,9.71
2023-05-22T12:28:37.084Z,9.89
2023-05-22T12:29:37.108Z,9.69
2023-05-22T12:30:37.264Z,9.64
2023-05-22T12:31:37.018Z,9.62
2023-05-22T12:32:37.109Z,9.84
2023-05-22T12:33:37.009Z,9.62
2023-05-22T12:34:37.017Z,9.84
2023-05-22T12:35:37.064Z,9.87
2023-05-22T12:36:36.994Z,9.93
2023-05-22T12:37:36.981Z,10.03
2023-05-22T12:38:36.992Z,9.86
2023-05-22T12:39:36.995Z,9.80
2023-05-22T12:40:37.118Z,9.56
2023-05-22T12:41:37.006Z,9.71
2023-05-22T12:42:36.962Z,9.93
2023-05-22T12:43:36.935Z,9.79
2023-05-22T12:44:36.918Z,9.63
2023-05-22T12:45:36.948Z,9.97
2023-05-22T12:46:37.127Z,10.00
2023-05-22T12:47:37.011Z,9.82
2023-05-22T12:48:36.983Z,9.75
2023-05-22T12:49:36.988Z,9.92
2023-05-22T12:50:37.266Z,10.02
2023-05-22T12:51:37.053Z,10.11
2023-05-22T12:52:37.044Z,10.09
2023-05-22T12:53:37.093Z,9.85
2023-05-22T12:54:37.060Z,10.03
2023-05-22T12:55:37.069Z,10.08
2023-05-22T12:56:37.083Z,9.86
2023-05-22T12:57:37.114Z,9.89
2023-05-22T12:58:37.123Z,9.89
2023-05-22T12:59:37.160Z,9.96
2023-05-22T13:00:37.189Z,9.69
2023-05-22T13:01:37.169Z,9.90
2023-05-22T13:02:37.304Z,9.79
2023-05-22T13:03:37.160Z,9.82
2023-05-22T13:04:37.229Z,9.74
2023-05-22T13:05:37.224Z,9.57
2023-05-22T13:06:37.192Z,9.59
2023-05-22T13:07:37.247Z,9.65
2023-05-22T13:08:37.247Z,9.74
2023-05-22T13:09:37.255Z,9.47
2023-05-22T13:10:37.303Z,9.48
2023-05-22T13:11:37.384Z,9.23
2023-05-22T13:12:37.330Z,9.68
2023-05-22T13:13:37.320Z,9.56
2023-05-22T13:14:37.326Z,9.47
2023-05-22T13:15:37.485Z,9.61
2023-05-22T13:16:37.449Z,9.24
2023-05-22T13:17:37.507Z,9.23
2023-05-22T13:18:37.502Z,9.27